sensor_id;sensor_type;location;lat;lon;timestamp;temperature;humidity
30893;DHT22;17595;50.884;4.346;2022-10-18T00:01:34;19.30;99.90
30893;DHT22;17595;50.884;4.346;2022-10-18T00:03:59;19.30;99.90
30893;DHT22;17595;50.884;4.346;2022-10-18T00:06:25;19.20;99.90
30893;DHT22;17595;50.884;4.346;2022-10-18T00:08:50;19.20;99.90
30893;DHT22;17595;50.884;4.346;2022-10-18T00:11:16;19.20;99.90
30893;DHT22;17595;50.884;4.346;2022-10-18T00:13:42;19.10;99.90
30893;DHT22;17595;50.884;4.346;2022-10-18T00:16:11;19.10;99.90
30893;DHT22;17595;50.884;4.346;2022-10-18T00:18:37;19.10;99.90
30893;DHT22;17595;50.884;4.346;2022-10-18T00:21:04;19.10;99.90
30893;DHT22;17595;50.884;4.346;2022-10-18T00:23:30;19.10;99.90
30893;DHT22;17595;50.884;4.346;2022-10-18T00:26:00;19.10;99.90
30893;DHT22;17595;50.884;4.346;2022-10-18T00:28:25;19.10;99.90
30893;DHT22;17595;50.884;4.346;2022-10-18T00:30:51;19.10;99.90
30893;DHT22;17595;50.884;4.346;2022-10-18T00:33:16;19.10;99.90
30893;DHT22;17595;50.884;4.346;2022-10-18T00:35:42;19.10;99.90
30893;DHT22;17595;50.884;4.346;2022-10-18T00:38:08;19.10;99.90
30893;DHT22;17595;50.884;4.346;2022-10-18T00:40:33;19.10;99.90
30893;DHT22;17595;50.884;4.346;2022-10-18T00:42:59;19.00;99.90
30893;DHT22;17595;50.884;4.346;2022-10-18T00:45:24;19.00;99.90
30893;DHT22;17595;50.884;4.346;2022-10-18T00:47:54;19.10;99.90
30893;DHT22;17595;50.884;4.346;2022-10-18T00:50:21;19.10;99.90
30893;DHT22;17595;50.884;4.346;2022-10-18T00:52:54;19.20;99.90
30893;DHT22;17595;50.884;4.346;2022-10-18T00:55:23;19.10;99.90
30893;DHT22;17595;50.884;4.346;2022-10-18T00:57:49;19.20;99.90
30893;DHT22;17595;50.884;4.346;2022-10-18T01:00:15;19.20;99.90
30893;DHT22;17595;50.884;4.346;2022-10-18T01:02:42;19.20;99.90
30893;DHT22;17595;50.884;4.346;2022-10-18T01:05:09;19.10;99.90
30893;DHT22;17595;50.884;4.346;2022-10-18T01:07:44;19.00;99.90
30893;DHT22;17595;50.884;4.346;2022-10-18T01:10:22;19.00;99.90
30893;DHT22;17595;50.884;4.346;2022-10-18T01:20:21;19.00;99.90
30893;DHT22;17595;50.884;4.346;2022-10-18T01:22:49;19.00;99.90
30893;DHT22;17595;50.884;4.346;2022-10-18T01:25:23;19.10;99.90
30893;DHT22;17595;50.884;4.346;2022-10-18T01:27:54;19.10;99.90
30893;DHT22;17595;50.884;4.346;2022-10-18T01:33:41;19.10;99.90
30893;DHT22;17595;50.884;4.346;2022-10-18T01:35:43;19.00;99.90
30893;DHT22;17595;50.884;4.346;2022-10-18T01:38:12;19.00;99.90
30893;DHT22;17595;50.884;4.346;2022-10-18T01:40:41;19.00;99.90
30893;DHT22;17595;50.884;4.346;2022-10-18T01:43:08;19.00;99.90
30893;DHT22;17595;50.884;4.346;2022-10-18T01:45:34;19.10;99.90
30893;DHT22;17595;50.884;4.346;2022-10-18T01:47:59;19.00;99.90
30893;DHT22;17595;50.884;4.346;2022-10-18T01:50:35;19.00;99.90
30893;DHT22;17595;50.884;4.346;2022-10-18T01:53:00;19.00;99.90
30893;DHT22;17595;50.884;4.346;2022-10-18T01:55:36;19.00;99.90
30893;DHT22;17595;50.884;4.346;2022-10-18T01:58:25;19.00;99.90
30893;DHT22;17595;50.884;4.346;2022-10-18T02:00:49;19.00;99.90
30893;DHT22;17595;50.884;4.346;2022-10-18T02:03:21;19.00;99.90
30893;DHT22;17595;50.884;4.346;2022-10-18T02:05:50;19.00;99.90
30893;DHT22;17595;50.884;4.346;2022-10-18T02:10:47;19.00;99.90
30893;DHT22;17595;50.884;4.346;2022-10-18T02:13:15;19.00;99.90
30893;DHT22;17595;50.884;4.346;2022-10-18T02:15:43;18.90;99.90
30893;DHT22;17595;50.884;4.346;2022-10-18T02:18:11;18.90;99.90
30893;DHT22;17595;50.884;4.346;2022-10-18T02:20:37;18.90;99.90
30893;DHT22;17595;50.884;4.346;2022-10-18T02:23:04;18.90;99.90
30893;DHT22;17595;50.884;4.346;2022-10-18T02:25:30;18.90;99.90
30893;DHT22;17595;50.884;4.346;2022-10-18T02:27:58;18.90;99.90
30893;DHT22;17595;50.884;4.346;2022-10-18T02:30:26;18.90;99.90
30893;DHT22;17595;50.884;4.346;2022-10-18T02:33:05;19.00;99.90
30893;DHT22;17595;50.884;4.346;2022-10-18T02:35:38;18.90;99.90
30893;DHT22;17595;50.884;4.346;2022-10-18T02:38:05;18.90;99.90
30893;DHT22;17595;50.884;4.346;2022-10-18T02:40:31;19.00;99.90
30893;DHT22;17595;50.884;4.346;2022-10-18T02:42:57;19.00;99.90
30893;DHT22;17595;50.884;4.346;2022-10-18T02:45:23;18.90;99.90
30893;DHT22;17595;50.884;4.346;2022-10-18T02:47:49;18.90;99.90
30893;DHT22;17595;50.884;4.346;2022-10-18T02:50:15;18.90;99.90
30893;DHT22;17595;50.884;4.346;2022-10-18T02:52:40;19.00;99.90
30893;DHT22;17595;50.884;4.346;2022-10-18T02:55:06;19.00;99.90
30893;DHT22;17595;50.884;4.346;2022-10-18T02:57:32;19.00;99.90
30893;DHT22;17595;50.884;4.346;2022-10-18T02:59:58;18.90;99.90
30893;DHT22;17595;50.884;4.346;2022-10-18T03:02:23;18.80;99.90
30893;DHT22;17595;50.884;4.346;2022-10-18T03:04:49;18.90;99.90
30893;DHT22;17595;50.884;4.346;2022-10-18T03:07:14;18.80;99.90
30893;DHT22;17595;50.884;4.346;2022-10-18T03:09:40;18.90;99.90
30893;DHT22;17595;50.884;4.346;2022-10-18T03:12:06;19.00;99.90
30893;DHT22;17595;50.884;4.346;2022-10-18T03:14:31;19.00;99.90
30893;DHT22;17595;50.884;4.346;2022-10-18T03:16:57;19.00;99.90
30893;DHT22;17595;50.884;4.346;2022-10-18T03:19:23;19.00;99.90
30893;DHT22;17595;50.884;4.346;2022-10-18T03:21:48;19.00;99.90
30893;DHT22;17595;50.884;4.346;2022-10-18T03:24:14;19.10;99.90
30893;DHT22;17595;50.884;4.346;2022-10-18T03:26:39;19.10;99.90
30893;DHT22;17595;50.884;4.346;2022-10-18T03:29:05;19.10;99.90
30893;DHT22;17595;50.884;4.346;2022-10-18T03:31:30;19.00;99.90
30893;DHT22;17595;50.884;4.346;2022-10-18T03:33:56;19.00;99.90
30893;DHT22;17595;50.884;4.346;2022-10-18T03:36:22;19.00;99.90
30893;DHT22;17595;50.884;4.346;2022-10-18T03:38:47;19.00;99.90
30893;DHT22;17595;50.884;4.346;2022-10-18T03:41:13;19.00;99.90
30893;DHT22;17595;50.884;4.346;2022-10-18T03:43:38;18.90;99.90
30893;DHT22;17595;50.884;4.346;2022-10-18T03:46:04;18.90;99.90
30893;DHT22;17595;50.884;4.346;2022-10-18T03:48:29;19.00;99.90
30893;DHT22;17595;50.884;4.346;2022-10-18T03:50:55;19.00;99.90
30893;DHT22;17595;50.884;4.346;2022-10-18T03:53:20;19.10;99.90
30893;DHT22;17595;50.884;4.346;2022-10-18T03:55:52;19.00;99.90
30893;DHT22;17595;50.884;4.346;2022-10-18T03:58:18;19.10;99.90
30893;DHT22;17595;50.884;4.346;2022-10-18T04:00:44;18.10;99.90
30893;DHT22;17595;50.884;4.346;2022-10-18T04:03:10;19.00;99.90
30893;DHT22;17595;50.884;4.346;2022-10-18T04:05:35;19.00;99.90
30893;DHT22;17595;50.884;4.346;2022-10-18T04:08:01;19.00;99.90
30893;DHT22;17595;50.884;4.346;2022-10-18T04:10:27;18.90;99.90
30893;DHT22;17595;50.884;4.346;2022-10-18T04:12:53;18.80;99.90
30893;DHT22;17595;50.884;4.346;2022-10-18T04:15:18;18.90;99.90
30893;DHT22;17595;50.884;4.346;2022-10-18T04:17:44;19.00;99.90
30893;DHT22;17595;50.884;4.346;2022-10-18T04:20:11;19.10;99.90
30893;DHT22;17595;50.884;4.346;2022-10-18T04:22:36;19.00;99.90
30893;DHT22;17595;50.884;4.346;2022-10-18T04:25:02;19.00;99.90
30893;DHT22;17595;50.884;4.346;2022-10-18T04:27:28;19.00;99.90
30893;DHT22;17595;50.884;4.346;2022-10-18T04:29:53;19.00;99.90
30893;DHT22;17595;50.884;4.346;2022-10-18T04:32:19;19.10;99.90
30893;DHT22;17595;50.884;4.346;2022-10-18T04:34:44;19.00;99.90
30893;DHT22;17595;50.884;4.346;2022-10-18T04:37:10;19.00;99.90
30893;DHT22;17595;50.884;4.346;2022-10-18T04:39:35;19.10;99.90
30893;DHT22;17595;50.884;4.346;2022-10-18T04:42:01;19.00;99.90
30893;DHT22;17595;50.884;4.346;2022-10-18T04:44:26;19.00;99.90
30893;DHT22;17595;50.884;4.346;2022-10-18T04:46:52;18.90;99.90
30893;DHT22;17595;50.884;4.346;2022-10-18T04:49:17;19.00;99.90
30893;DHT22;17595;50.884;4.346;2022-10-18T04:51:43;19.00;99.90
30893;DHT22;17595;50.884;4.346;2022-10-18T04:54:08;19.00;99.90
30893;DHT22;17595;50.884;4.346;2022-10-18T04:56:34;19.00;99.90
30893;DHT22;17595;50.884;4.346;2022-10-18T04:59:00;19.00;99.90
30893;DHT22;17595;50.884;4.346;2022-10-18T05:01:25;19.00;99.90
30893;DHT22;17595;50.884;4.346;2022-10-18T05:03:51;19.10;99.90
30893;DHT22;17595;50.884;4.346;2022-10-18T05:06:18;19.40;99.90
30893;DHT22;17595;50.884;4.346;2022-10-18T05:08:44;19.00;99.90
30893;DHT22;17595;50.884;4.346;2022-10-18T05:11:09;19.00;99.90
30893;DHT22;17595;50.884;4.346;2022-10-18T05:13:35;19.00;99.90
30893;DHT22;17595;50.884;4.346;2022-10-18T05:16:02;19.00;99.90
30893;DHT22;17595;50.884;4.346;2022-10-18T05:18:28;19.00;99.90
30893;DHT22;17595;50.884;4.346;2022-10-18T05:20:54;19.10;99.90
30893;DHT22;17595;50.884;4.346;2022-10-18T05:23:19;19.10;99.90
30893;DHT22;17595;50.884;4.346;2022-10-18T05:25:45;19.10;99.90
30893;DHT22;17595;50.884;4.346;2022-10-18T05:28:10;19.00;99.90
30893;DHT22;17595;50.884;4.346;2022-10-18T05:30:37;19.00;99.90
30893;DHT22;17595;50.884;4.346;2022-10-18T05:33:03;19.00;99.90
30893;DHT22;17595;50.884;4.346;2022-10-18T05:35:28;19.10;99.90
30893;DHT22;17595;50.884;4.346;2022-10-18T05:37:54;19.00;99.90
30893;DHT22;17595;50.884;4.346;2022-10-18T05:40:19;18.90;99.90
30893;DHT22;17595;50.884;4.346;2022-10-18T05:42:45;18.90;99.90
30893;DHT22;17595;50.884;4.346;2022-10-18T05:45:10;18.80;99.90
30893;DHT22;17595;50.884;4.346;2022-10-18T05:47:36;18.80;99.90
30893;DHT22;17595;50.884;4.346;2022-10-18T05:50:01;18.80;99.90
30893;DHT22;17595;50.884;4.346;2022-10-18T05:52:27;18.80;99.90
30893;DHT22;17595;50.884;4.346;2022-10-18T05:54:52;18.90;99.90
30893;DHT22;17595;50.884;4.346;2022-10-18T05:57:17;18.80;99.90
30893;DHT22;17595;50.884;4.346;2022-10-18T05:59:43;18.80;99.90
30893;DHT22;17595;50.884;4.346;2022-10-18T06:02:11;18.80;99.90
30893;DHT22;17595;50.884;4.346;2022-10-18T06:04:37;18.70;99.90
30893;DHT22;17595;50.884;4.346;2022-10-18T06:07:06;18.70;99.90
30893;DHT22;17595;50.884;4.346;2022-10-18T06:09:31;18.70;99.90
30893;DHT22;17595;50.884;4.346;2022-10-18T06:11:57;18.70;99.90
30893;DHT22;17595;50.884;4.346;2022-10-18T06:14:22;18.70;99.90
30893;DHT22;17595;50.884;4.346;2022-10-18T06:16:48;18.60;99.90
30893;DHT22;17595;50.884;4.346;2022-10-18T06:19:14;18.60;99.90
30893;DHT22;17595;50.884;4.346;2022-10-18T06:21:40;18.60;99.90
30893;DHT22;17595;50.884;4.346;2022-10-18T06:24:05;18.60;99.90
30893;DHT22;17595;50.884;4.346;2022-10-18T06:26:31;18.60;99.90
30893;DHT22;17595;50.884;4.346;2022-10-18T06:28:56;18.60;99.90
30893;DHT22;17595;50.884;4.346;2022-10-18T06:31:22;18.60;99.90
30893;DHT22;17595;50.884;4.346;2022-10-18T06:33:47;18.50;99.90
30893;DHT22;17595;50.884;4.346;2022-10-18T06:36:15;18.60;99.90
30893;DHT22;17595;50.884;4.346;2022-10-18T06:38:41;20.90;99.90
30893;DHT22;17595;50.884;4.346;2022-10-18T06:41:07;18.50;99.90
30893;DHT22;17595;50.884;4.346;2022-10-18T06:43:33;18.50;99.90
30893;DHT22;17595;50.884;4.346;2022-10-18T06:46:02;18.50;99.90
30893;DHT22;17595;50.884;4.346;2022-10-18T06:48:29;18.40;99.90
30893;DHT22;17595;50.884;4.346;2022-10-18T06:50:56;20.00;99.90
30893;DHT22;17595;50.884;4.346;2022-10-18T06:53:22;18.50;99.90
30893;DHT22;17595;50.884;4.346;2022-10-18T06:55:48;19.10;99.90
30893;DHT22;17595;50.884;4.346;2022-10-18T06:58:13;19.00;99.90
30893;DHT22;17595;50.884;4.346;2022-10-18T07:00:39;18.50;99.90
30893;DHT22;17595;50.884;4.346;2022-10-18T07:03:04;18.50;99.90
30893;DHT22;17595;50.884;4.346;2022-10-18T07:05:30;18.40;99.90
30893;DHT22;17595;50.884;4.346;2022-10-18T07:07:56;20.30;99.90
30893;DHT22;17595;50.884;4.346;2022-10-18T07:10:22;18.40;99.90
30893;DHT22;17595;50.884;4.346;2022-10-18T07:12:47;18.40;99.90
30893;DHT22;17595;50.884;4.346;2022-10-18T07:15:13;18.40;99.90
30893;DHT22;17595;50.884;4.346;2022-10-18T07:17:38;18.40;99.90
30893;DHT22;17595;50.884;4.346;2022-10-18T07:20:04;18.50;99.90
30893;DHT22;17595;50.884;4.346;2022-10-18T07:22:29;18.50;99.90
30893;DHT22;17595;50.884;4.346;2022-10-18T07:24:55;18.60;99.90
30893;DHT22;17595;50.884;4.346;2022-10-18T07:27:20;18.60;99.90
30893;DHT22;17595;50.884;4.346;2022-10-18T07:29:46;18.60;99.90
30893;DHT22;17595;50.884;4.346;2022-10-18T07:32:12;18.50;99.90
30893;DHT22;17595;50.884;4.346;2022-10-18T07:37:04;18.30;99.90
30893;DHT22;17595;50.884;4.346;2022-10-18T07:39:29;18.30;99.90
30893;DHT22;17595;50.884;4.346;2022-10-18T07:41:55;18.30;99.90
30893;DHT22;17595;50.884;4.346;2022-10-18T07:44:20;18.30;99.90
30893;DHT22;17595;50.884;4.346;2022-10-18T07:46:46;18.30;99.90
30893;DHT22;17595;50.884;4.346;2022-10-18T07:49:11;18.30;99.90
30893;DHT22;17595;50.884;4.346;2022-10-18T07:51:37;18.30;99.90
30893;DHT22;17595;50.884;4.346;2022-10-18T07:54:02;18.30;99.90
30893;DHT22;17595;50.884;4.346;2022-10-18T07:56:28;18.40;99.90
30893;DHT22;17595;50.884;4.346;2022-10-18T07:58:54;18.90;99.90
30893;DHT22;17595;50.884;4.346;2022-10-18T08:01:21;18.40;99.90
30893;DHT22;17595;50.884;4.346;2022-10-18T08:03:46;18.40;99.90
30893;DHT22;17595;50.884;4.346;2022-10-18T08:06:13;18.50;99.90
30893;DHT22;17595;50.884;4.346;2022-10-18T08:08:39;18.50;99.90
30893;DHT22;17595;50.884;4.346;2022-10-18T08:11:06;18.50;99.90
30893;DHT22;17595;50.884;4.346;2022-10-18T08:13:32;18.50;99.90
30893;DHT22;17595;50.884;4.346;2022-10-18T08:16:01;19.50;99.90
30893;DHT22;17595;50.884;4.346;2022-10-18T08:18:27;18.50;99.90
30893;DHT22;17595;50.884;4.346;2022-10-18T08:20:53;18.50;99.90
30893;DHT22;17595;50.884;4.346;2022-10-18T08:23:19;18.60;99.90
30893;DHT22;17595;50.884;4.346;2022-10-18T08:25:44;18.60;99.90
30893;DHT22;17595;50.884;4.346;2022-10-18T08:28:10;18.60;99.90
30893;DHT22;17595;50.884;4.346;2022-10-18T08:30:37;18.60;99.90
30893;DHT22;17595;50.884;4.346;2022-10-18T08:33:03;18.70;99.90
30893;DHT22;17595;50.884;4.346;2022-10-18T08:35:28;18.70;99.90
30893;DHT22;17595;50.884;4.346;2022-10-18T08:37:54;18.60;99.90
30893;DHT22;17595;50.884;4.346;2022-10-18T08:40:19;18.50;99.90
30893;DHT22;17595;50.884;4.346;2022-10-18T08:42:56;18.50;99.90
30893;DHT22;17595;50.884;4.346;2022-10-18T08:45:24;18.30;99.90
30893;DHT22;17595;50.884;4.346;2022-10-18T08:47:49;18.30;99.90
30893;DHT22;17595;50.884;4.346;2022-10-18T08:50:25;18.40;99.90
30893;DHT22;17595;50.884;4.346;2022-10-18T08:57:45;18.50;99.90
30893;DHT22;17595;50.884;4.346;2022-10-18T09:00:18;18.70;99.90
30893;DHT22;17595;50.884;4.346;2022-10-18T09:10:42;18.50;99.90
30893;DHT22;17595;50.884;4.346;2022-10-18T09:13:17;18.50;99.90
30893;DHT22;17595;50.884;4.346;2022-10-18T09:20:52;18.70;99.90
30893;DHT22;17595;50.884;4.346;2022-10-18T09:23:21;18.80;99.90
30893;DHT22;17595;50.884;4.346;2022-10-18T09:25:58;18.90;99.90
30893;DHT22;17595;50.884;4.346;2022-10-18T09:31:14;18.80;99.90
30893;DHT22;17595;50.884;4.346;2022-10-18T09:33:52;18.60;99.90
30893;DHT22;17595;50.884;4.346;2022-10-18T09:36:22;18.70;99.90
30893;DHT22;17595;50.884;4.346;2022-10-18T09:38:52;18.80;99.90
30893;DHT22;17595;50.884;4.346;2022-10-18T09:43:49;18.60;99.90
30893;DHT22;17595;50.884;4.346;2022-10-18T09:46:16;18.30;99.90
30893;DHT22;17595;50.884;4.346;2022-10-18T09:48:45;18.30;99.90
30893;DHT22;17595;50.884;4.346;2022-10-18T09:51:11;18.70;99.90
30893;DHT22;17595;50.884;4.346;2022-10-18T09:53:43;18.40;99.90
30893;DHT22;17595;50.884;4.346;2022-10-18T09:56:10;18.50;99.90
30893;DHT22;17595;50.884;4.346;2022-10-18T09:58:43;18.60;99.90
30893;DHT22;17595;50.884;4.346;2022-10-18T10:01:10;18.70;99.90
30893;DHT22;17595;50.884;4.346;2022-10-18T10:03:37;19.70;99.90
30893;DHT22;17595;50.884;4.346;2022-10-18T10:08:41;18.60;99.90
30893;DHT22;17595;50.884;4.346;2022-10-18T10:11:26;18.60;99.90
30893;DHT22;17595;50.884;4.346;2022-10-18T10:13:55;18.60;99.90
30893;DHT22;17595;50.884;4.346;2022-10-18T10:16:21;18.60;99.90
30893;DHT22;17595;50.884;4.346;2022-10-18T10:18:50;18.50;99.90
30893;DHT22;17595;50.884;4.346;2022-10-18T10:21:17;18.60;99.90
30893;DHT22;17595;50.884;4.346;2022-10-18T10:23:50;18.40;99.90
30893;DHT22;17595;50.884;4.346;2022-10-18T10:26:21;18.30;99.90
30893;DHT22;17595;50.884;4.346;2022-10-18T10:28:47;18.30;99.90
30893;DHT22;17595;50.884;4.346;2022-10-18T10:31:26;19.40;99.90
30893;DHT22;17595;50.884;4.346;2022-10-18T10:36:44;18.70;99.90
30893;DHT22;17595;50.884;4.346;2022-10-18T10:39:11;19.00;99.90
30893;DHT22;17595;50.884;4.346;2022-10-18T10:41:38;19.40;99.90
30893;DHT22;17595;50.884;4.346;2022-10-18T10:44:04;19.40;99.90
30893;DHT22;17595;50.884;4.346;2022-10-18T10:46:38;19.50;99.90
30893;DHT22;17595;50.884;4.346;2022-10-18T10:49:03;19.40;99.90
30893;DHT22;17595;50.884;4.346;2022-10-18T10:54:01;19.60;99.90
30893;DHT22;17595;50.884;4.346;2022-10-18T10:56:31;19.60;99.90
30893;DHT22;17595;50.884;4.346;2022-10-18T10:59:06;19.70;99.90
30893;DHT22;17595;50.884;4.346;2022-10-18T11:01:32;19.50;99.90
30893;DHT22;17595;50.884;4.346;2022-10-18T11:04:02;19.70;99.90
30893;DHT22;17595;50.884;4.346;2022-10-18T11:09:32;19.30;99.90
30893;DHT22;17595;50.884;4.346;2022-10-18T11:12:02;19.30;99.90
30893;DHT22;17595;50.884;4.346;2022-10-18T11:14:31;19.50;99.90
30893;DHT22;17595;50.884;4.346;2022-10-18T11:19:49;19.80;99.90
30893;DHT22;17595;50.884;4.346;2022-10-18T11:22:20;19.90;99.90
30893;DHT22;17595;50.884;4.346;2022-10-18T11:24:46;20.00;99.90
30893;DHT22;17595;50.884;4.346;2022-10-18T11:39:59;20.20;99.90
30893;DHT22;17595;50.884;4.346;2022-10-18T11:42:36;20.30;99.90
30893;DHT22;17595;50.884;4.346;2022-10-18T11:47:43;20.00;99.90
30893;DHT22;17595;50.884;4.346;2022-10-18T11:53:03;19.80;99.90
30893;DHT22;17595;50.884;4.346;2022-10-18T11:55:38;19.70;99.90
30893;DHT22;17595;50.884;4.346;2022-10-18T12:00:52;19.80;99.90
30893;DHT22;17595;50.884;4.346;2022-10-18T12:03:32;19.80;99.90
30893;DHT22;17595;50.884;4.346;2022-10-18T12:06:00;19.80;99.90
30893;DHT22;17595;50.884;4.346;2022-10-18T12:08:36;20.00;99.90
30893;DHT22;17595;50.884;4.346;2022-10-18T12:11:13;20.20;99.90
30893;DHT22;17595;50.884;4.346;2022-10-18T12:13:47;20.10;99.90
30893;DHT22;17595;50.884;4.346;2022-10-18T12:16:14;20.00;99.90
30893;DHT22;17595;50.884;4.346;2022-10-18T12:19:15;19.90;99.90
30893;DHT22;17595;50.884;4.346;2022-10-18T12:21:32;20.00;99.90
30893;DHT22;17595;50.884;4.346;2022-10-18T12:24:01;19.90;99.90
30893;DHT22;17595;50.884;4.346;2022-10-18T12:26:27;19.70;99.90
30893;DHT22;17595;50.884;4.346;2022-10-18T12:28:58;19.90;99.90
30893;DHT22;17595;50.884;4.346;2022-10-18T12:33:52;19.50;99.90
30893;DHT22;17595;50.884;4.346;2022-10-18T12:38:56;19.80;99.90
30893;DHT22;17595;50.884;4.346;2022-10-18T12:41:24;20.00;99.90
30893;DHT22;17595;50.884;4.346;2022-10-18T12:44:02;20.10;99.90
30893;DHT22;17595;50.884;4.346;2022-10-18T12:49:09;20.00;99.90
30893;DHT22;17595;50.884;4.346;2022-10-18T12:51:48;20.00;99.90
30893;DHT22;17595;50.884;4.346;2022-10-18T12:54:14;20.10;99.90
30893;DHT22;17595;50.884;4.346;2022-10-18T12:56:41;20.40;99.90
30893;DHT22;17595;50.884;4.346;2022-10-18T13:04:31;20.00;99.90
30893;DHT22;17595;50.884;4.346;2022-10-18T13:09:30;20.10;99.90
30893;DHT22;17595;50.884;4.346;2022-10-18T13:17:06;19.90;99.90
30893;DHT22;17595;50.884;4.346;2022-10-18T13:19:52;20.10;99.90
30893;DHT22;17595;50.884;4.346;2022-10-18T13:38:04;19.80;99.90
30893;DHT22;17595;50.884;4.346;2022-10-18T13:40:40;19.80;99.90
30893;DHT22;17595;50.884;4.346;2022-10-18T13:45:53;20.10;99.90
30893;DHT22;17595;50.884;4.346;2022-10-18T13:50:55;20.40;99.90
30893;DHT22;17595;50.884;4.346;2022-10-18T13:53:36;20.50;99.90
30893;DHT22;17595;50.884;4.346;2022-10-18T13:56:09;20.60;99.90
30893;DHT22;17595;50.884;4.346;2022-10-18T13:58:52;20.60;99.90
30893;DHT22;17595;50.884;4.346;2022-10-18T14:01:28;20.60;99.90
30893;DHT22;17595;50.884;4.346;2022-10-18T14:06:41;20.60;99.90
30893;DHT22;17595;50.884;4.346;2022-10-18T14:09:18;20.50;99.90
30893;DHT22;17595;50.884;4.346;2022-10-18T14:11:51;20.60;99.90
30893;DHT22;17595;50.884;4.346;2022-10-18T14:14:32;20.60;99.90
30893;DHT22;17595;50.884;4.346;2022-10-18T14:19:37;20.60;99.90
30893;DHT22;17595;50.884;4.346;2022-10-18T14:22:21;20.60;99.90
30893;DHT22;17595;50.884;4.346;2022-10-18T14:24:54;20.40;99.90
30893;DHT22;17595;50.884;4.346;2022-10-18T14:27:22;20.30;99.90
30893;DHT22;17595;50.884;4.346;2022-10-18T14:29:48;20.20;99.90
30893;DHT22;17595;50.884;4.346;2022-10-18T14:32:24;20.20;99.90
30893;DHT22;17595;50.884;4.346;2022-10-18T14:34:50;20.30;99.90
30893;DHT22;17595;50.884;4.346;2022-10-18T14:37:34;20.40;99.90
30893;DHT22;17595;50.884;4.346;2022-10-18T14:40:01;20.50;99.90
30893;DHT22;17595;50.884;4.346;2022-10-18T14:42:27;20.40;99.90
30893;DHT22;17595;50.884;4.346;2022-10-18T14:44:52;20.50;99.90
30893;DHT22;17595;50.884;4.346;2022-10-18T14:47:22;20.60;99.90
30893;DHT22;17595;50.884;4.346;2022-10-18T14:49:48;20.50;99.90
30893;DHT22;17595;50.884;4.346;2022-10-18T14:52:15;20.40;99.90
30893;DHT22;17595;50.884;4.346;2022-10-18T14:54:41;20.30;99.90
30893;DHT22;17595;50.884;4.346;2022-10-18T14:57:07;20.30;99.90
30893;DHT22;17595;50.884;4.346;2022-10-18T14:59:43;20.20;99.90
30893;DHT22;17595;50.884;4.346;2022-10-18T15:02:16;20.20;99.90
30893;DHT22;17595;50.884;4.346;2022-10-18T15:04:44;20.20;99.90
30893;DHT22;17595;50.884;4.346;2022-10-18T15:07:13;20.30;99.90
30893;DHT22;17595;50.884;4.346;2022-10-18T15:09:39;20.20;99.90
30893;DHT22;17595;50.884;4.346;2022-10-18T15:12:05;20.20;99.90
30893;DHT22;17595;50.884;4.346;2022-10-18T15:14:31;20.20;99.90
30893;DHT22;17595;50.884;4.346;2022-10-18T15:16:59;20.30;99.90
30893;DHT22;17595;50.884;4.346;2022-10-18T15:19:30;19.40;99.90
30893;DHT22;17595;50.884;4.346;2022-10-18T15:21:57;20.00;99.90
30893;DHT22;17595;50.884;4.346;2022-10-18T15:26:52;20.10;99.90
30893;DHT22;17595;50.884;4.346;2022-10-18T15:29:19;20.00;99.90
30893;DHT22;17595;50.884;4.346;2022-10-18T15:31:45;20.00;99.90
30893;DHT22;17595;50.884;4.346;2022-10-18T15:34:24;20.10;99.90
30893;DHT22;17595;50.884;4.346;2022-10-18T15:36:51;20.20;99.90
30893;DHT22;17595;50.884;4.346;2022-10-18T15:44:17;20.20;99.90
30893;DHT22;17595;50.884;4.346;2022-10-18T15:46:44;20.10;99.90
30893;DHT22;17595;50.884;4.346;2022-10-18T15:51:47;20.10;99.90
30893;DHT22;17595;50.884;4.346;2022-10-18T15:54:17;20.00;99.90
30893;DHT22;17595;50.884;4.346;2022-10-18T15:56:43;20.00;99.90
30893;DHT22;17595;50.884;4.346;2022-10-18T15:59:21;19.90;99.90
30893;DHT22;17595;50.884;4.346;2022-10-18T16:01:47;19.90;99.90
30893;DHT22;17595;50.884;4.346;2022-10-18T16:06:47;20.00;99.90
30893;DHT22;17595;50.884;4.346;2022-10-18T16:09:17;20.00;99.90
30893;DHT22;17595;50.884;4.346;2022-10-18T16:11:43;20.00;99.90
30893;DHT22;17595;50.884;4.346;2022-10-18T16:14:08;20.00;99.90
30893;DHT22;17595;50.884;4.346;2022-10-18T16:16:34;20.10;99.90
30893;DHT22;17595;50.884;4.346;2022-10-18T16:18:59;20.00;99.90
30893;DHT22;17595;50.884;4.346;2022-10-18T16:21:29;19.90;99.90
30893;DHT22;17595;50.884;4.346;2022-10-18T16:23:55;19.90;99.90
30893;DHT22;17595;50.884;4.346;2022-10-18T16:26:21;19.90;99.90
30893;DHT22;17595;50.884;4.346;2022-10-18T16:28:47;19.90;99.90
30893;DHT22;17595;50.884;4.346;2022-10-18T16:31:19;19.80;99.90
30893;DHT22;17595;50.884;4.346;2022-10-18T16:33:46;19.80;99.90
30893;DHT22;17595;50.884;4.346;2022-10-18T16:36:21;19.80;99.90
30893;DHT22;17595;50.884;4.346;2022-10-18T16:38:48;19.70;99.90
30893;DHT22;17595;50.884;4.346;2022-10-18T16:41:14;19.60;99.90
30893;DHT22;17595;50.884;4.346;2022-10-18T16:43:40;19.50;99.90
30893;DHT22;17595;50.884;4.346;2022-10-18T16:46:06;19.50;99.90
30893;DHT22;17595;50.884;4.346;2022-10-18T16:48:34;19.40;99.90
30893;DHT22;17595;50.884;4.346;2022-10-18T16:51:00;19.40;99.90
30893;DHT22;17595;50.884;4.346;2022-10-18T16:53:25;19.40;99.90
30893;DHT22;17595;50.884;4.346;2022-10-18T16:55:59;19.30;99.90
30893;DHT22;17595;50.884;4.346;2022-10-18T16:58:25;19.30;99.90
30893;DHT22;17595;50.884;4.346;2022-10-18T17:00:51;19.20;99.90
30893;DHT22;17595;50.884;4.346;2022-10-18T17:03:16;19.30;99.90
30893;DHT22;17595;50.884;4.346;2022-10-18T17:05:42;19.10;99.90
30893;DHT22;17595;50.884;4.346;2022-10-18T17:08:12;19.00;99.90
30893;DHT22;17595;50.884;4.346;2022-10-18T17:10:40;19.00;99.90
30893;DHT22;17595;50.884;4.346;2022-10-18T17:13:05;18.90;99.90
30893;DHT22;17595;50.884;4.346;2022-10-18T17:15:31;18.80;99.90
30893;DHT22;17595;50.884;4.346;2022-10-18T17:17:56;18.80;99.90
30893;DHT22;17595;50.884;4.346;2022-10-18T17:20:24;18.70;99.90
30893;DHT22;17595;50.884;4.346;2022-10-18T17:22:50;18.80;99.90
30893;DHT22;17595;50.884;4.346;2022-10-18T17:25:16;18.70;99.90
30893;DHT22;17595;50.884;4.346;2022-10-18T17:27:42;20.20;99.90
30893;DHT22;17595;50.884;4.346;2022-10-18T17:30:08;18.70;99.90
30893;DHT22;17595;50.884;4.346;2022-10-18T17:32:33;18.70;99.90
30893;DHT22;17595;50.884;4.346;2022-10-18T17:34:59;19.80;99.90
30893;DHT22;17595;50.884;4.346;2022-10-18T17:37:24;18.70;99.90
30893;DHT22;17595;50.884;4.346;2022-10-18T17:41:09;18.60;99.90
30893;DHT22;17595;50.884;4.346;2022-10-18T17:43:37;18.50;99.90
30893;DHT22;17595;50.884;4.346;2022-10-18T17:46:03;18.50;99.90
30893;DHT22;17595;50.884;4.346;2022-10-18T17:48:29;18.50;99.90